Time;durP1;ratioP1;P1;durP2;ratioP2;P2;SDS_P1;SDS_P2;PMS_P1;PMS_P2;Temp;Humidity;BMP_temperature;BMP_pressure;BME280_temperature;BME280_humidity;BME280_pressure;Samples;Min_cycle;Max_cycle;Signal;HPM_P1;HPM_P2
2021/06/04 00:00:28;;;;;;;17.20;15.30;;;19.00;99.90;;;;;;5068885;28;20036;-83
2021/06/04 00:24:23;;;;;;;24.52;21.95;;;18.80;99.90;;;;;;5616845;24;20696;-83
2021/06/04 00:30:22;;;;;;;27.85;22.55;;;18.80;99.90;;;;;;4687040;23;20550;-83
2021/06/04 00:32:48;;;;;;;24.83;22.13;;;18.80;99.90;;;;;;4803564;29;20504;-83
2021/06/04 00:35:16;;;;;;;24.10;21.63;;;18.80;99.90;;;;;;4791995;29;20050;-83
2021/06/04 00:37:43;;;;;;;23.25;20.92;;;18.80;99.90;;;;;;4820992;29;20053;-83
2021/06/04 00:40:41;;;;;;;25.05;22.45;;;18.80;99.90;;;;;;4805188;29;20049;-83
2021/06/04 00:43:09;;;;;;;27.27;21.30;;;18.80;99.90;;;;;;4816582;29;20055;-82
2021/06/04 00:45:42;;;;;;;30.73;24.80;;;18.80;99.90;;;;;;4816100;29;20069;-84
2021/06/04 00:48:10;;;;;;;27.60;23.92;;;18.80;99.90;;;;;;4820968;29;20042;-84
2021/06/04 00:50:51;;;;;;;27.58;23.48;;;18.80;99.90;;;;;;4818773;29;20141;-84
2021/06/04 00:53:21;;;;;;;28.10;25.10;;;18.70;99.90;;;;;;4790893;29;20361;-84
2021/06/04 00:55:49;;;;;;;29.48;25.50;;;18.80;99.90;;;;;;4793320;29;20112;-84
2021/06/04 00:58:21;;;;;;;26.58;23.10;;;18.80;99.90;;;;;;4808056;29;20987;-85
2021/06/04 01:00:52;;;;;;;28.35;25.23;;;18.80;99.90;;;;;;4793579;29;20496;-85
2021/06/04 01:03:23;;;;;;;27.75;24.85;;;18.80;99.90;;;;;;4823502;29;20061;-85
2021/06/04 01:05:51;;;;;;;28.85;25.85;;;18.80;99.90;;;;;;4822781;29;20046;-84
2021/06/04 01:08:27;;;;;;;33.25;26.58;;;18.80;99.90;;;;;;4794465;29;20061;-85
2021/06/04 01:11:14;;;;;;;23.60;21.05;;;18.70;99.90;;;;;;4821904;29;20045;-84
2021/06/04 01:14:01;;;;;;;23.08;20.17;;;18.70;99.90;;;;;;4793888;29;20058;-84
2021/06/04 01:16:28;;;;;;;27.65;24.52;;;18.70;99.90;;;;;;4795112;29;20046;-84
2021/06/04 01:19:30;;;;;;;27.33;24.42;;;18.70;99.90;;;;;;4825234;29;20042;-84
2021/06/04 01:22:03;;;;;;;27.58;24.52;;;18.70;99.90;;;;;;4795971;29;20042;-84
2021/06/04 01:25:10;;;;;;;31.85;28.35;;;18.60;99.90;;;;;;4812193;29;20041;-84
2021/06/04 01:27:43;;;;;;;30.40;26.23;;;18.60;99.90;;;;;;4794884;29;20045;-84
2021/06/04 01:30:19;;;;;;;30.13;25.05;;;18.60;99.90;;;;;;4784387;29;20066;-84
2021/06/04 01:32:49;;;;;;;32.10;27.10;;;18.60;99.90;;;;;;4777832;29;20505;-84
2021/06/04 01:35:24;;;;;;;33.78;28.30;;;18.60;99.90;;;;;;4791474;29;20045;-84
2021/06/04 01:37:52;;;;;;;34.28;28.98;;;18.50;99.90;;;;;;4786593;29;20030;-84
2021/06/04 01:40:28;;;;;;;34.17;27.95;;;18.50;99.90;;;;;;4789015;29;20410;-83
2021/06/04 01:43:03;;;;;;;34.72;27.85;;;18.50;99.90;;;;;;4786807;29;20053;-84
2021/06/04 01:45:36;;;;;;;33.15;29.05;;;18.50;99.90;;;;;;4802013;29;20050;-84
2021/06/04 01:48:17;;;;;;;30.23;26.95;;;18.50;99.90;;;;;;4799262;29;20042;-84
2021/06/04 01:51:08;;;;;;;31.17;26.35;;;18.50;99.90;;;;;;4794135;29;20476;-83
2021/06/04 01:53:45;;;;;;;32.50;26.33;;;18.40;99.90;;;;;;4782509;29;20051;-84
2021/06/04 01:56:18;;;;;;;32.10;27.13;;;18.40;99.90;;;;;;4787612;29;20061;-84
2021/06/04 01:58:52;;;;;;;32.75;27.48;;;18.40;99.90;;;;;;4793606;29;20043;-84
2021/06/04 02:01:50;;;;;;;35.90;28.48;;;18.30;99.90;;;;;;4784989;29;20411;-85
2021/06/04 02:04:24;;;;;;;42.22;30.33;;;18.30;99.90;;;;;;4770688;29;20046;-84
2021/06/04 02:06:54;;;;;;;32.45;28.25;;;18.20;99.90;;;;;;4800312;29;20043;-84
2021/06/04 02:09:24;;;;;;;38.75;28.17;;;18.20;99.90;;;;;;4772068;29;20039;-84
2021/06/04 02:11:57;;;;;;;32.65;27.50;;;18.20;99.90;;;;;;4799870;29;20050;-84
2021/06/04 02:14:32;;;;;;;29.77;26.27;;;18.10;99.90;;;;;;4798130;29;20479;-84
2021/06/04 02:17:16;;;;;;;32.58;26.75;;;18.10;99.90;;;;;;4782365;29;20054;-84
2021/06/04 02:20:25;;;;;;;32.45;28.92;;;18.00;99.90;;;;;;4797504;29;20585;-84
2021/06/04 02:23:23;;;;;;;33.85;29.77;;;17.90;99.90;;;;;;4788592;29;20971;-84
2021/06/04 02:26:06;;;;;;;29.90;26.33;;;17.90;99.90;;;;;;4801197;29;20409;-84
2021/06/04 02:28:58;;;;;;;30.35;26.95;;;17.80;99.90;;;;;;4787670;29;20073;-85
2021/06/04 02:31:50;;;;;;;32.63;28.15;;;17.80;99.90;;;;;;4799685;29;20062;-84
2021/06/04 02:34:50;;;;;;;33.13;27.48;;;17.80;99.90;;;;;;4785524;29;20046;-84
2021/06/04 02:37:29;;;;;;;32.05;26.10;;;17.70;99.90;;;;;;4793923;29;20042;-84
2021/06/04 02:40:12;;;;;;;36.03;27.08;;;17.70;99.90;;;;;;4786023;29;20058;-84
2021/06/04 02:42:45;;;;;;;35.35;27.92;;;17.70;99.90;;;;;;4771326;29;20058;-85
2021/06/04 02:45:43;;;;;;;35.22;29.48;;;17.60;99.90;;;;;;4789803;29;20054;-85
2021/06/04 02:48:14;;;;;;;39.38;31.60;;;17.60;99.90;;;;;;4777614;29;20457;-84
2021/06/04 02:50:49;;;;;;;38.80;30.75;;;17.60;99.90;;;;;;4791895;29;20046;-83
2021/06/04 02:53:27;;;;;;;36.88;30.20;;;17.60;99.90;;;;;;4800048;29;20073;-84
2021/06/04 02:56:17;;;;;;;38.03;30.13;;;17.60;99.90;;;;;;4799108;29;20512;-84
2021/06/04 02:58:56;;;;;;;41.00;30.85;;;17.50;99.90;;;;;;4806081;29;20038;-84
2021/06/04 03:01:23;;;;;;;40.22;31.10;;;17.50;99.90;;;;;;4809199;29;20061;-84
2021/06/04 03:03:58;;;;;;;42.90;32.53;;;17.50;99.90;;;;;;4793040;29;20046;-84
2021/06/04 03:06:35;;;;;;;43.55;31.95;;;17.50;99.90;;;;;;4773825;29;20043;-85
2021/06/04 03:09:07;;;;;;;40.88;33.72;;;17.50;99.90;;;;;;4786091;29;20050;-83
2021/06/04 03:11:34;;;;;;;46.03;35.00;;;17.50;99.90;;;;;;4792930;29;20390;-85
2021/06/04 03:14:05;;;;;;;46.75;33.38;;;17.50;99.90;;;;;;4790019;29;20054;-84
2021/06/04 03:16:33;;;;;;;45.90;33.45;;;17.50;99.90;;;;;;4789358;29;20050;-84
2021/06/04 03:19:06;;;;;;;48.70;33.25;;;17.50;99.90;;;;;;4771821;29;20042;-84
2021/06/04 03:21:36;;;;;;;49.90;35.00;;;17.40;99.90;;;;;;4773181;29;20039;-84
2021/06/04 03:24:08;;;;;;;47.92;36.15;;;17.40;99.90;;;;;;4800871;29;20039;-84
2021/06/04 03:26:38;;;;;;;44.95;35.35;;;17.40;99.90;;;;;;4768042;29;20050;-87
2021/06/04 03:29:09;;;;;;;43.38;33.88;;;17.40;99.90;;;;;;4772089;29;20054;-87
2021/06/04 03:31:38;;;;;;;45.08;34.55;;;17.30;99.90;;;;;;4782878;29;20051;-87
2021/06/04 03:34:06;;;;;;;44.08;34.67;;;17.30;99.90;;;;;;4790314;29;20469;-87
2021/06/04 03:36:36;;;;;;;42.75;33.75;;;17.30;99.90;;;;;;4768597;29;20430;-87
2021/06/04 03:39:10;;;;;;;46.92;34.13;;;17.30;99.90;;;;;;4784428;29;20046;-87
2021/06/04 03:41:39;;;;;;;44.15;34.17;;;17.20;99.90;;;;;;4800797;29;20491;-87
2021/06/04 03:44:12;;;;;;;42.55;34.70;;;17.20;99.90;;;;;;4777460;29;20055;-88
2021/06/04 03:46:41;;;;;;;44.25;34.25;;;17.20;99.90;;;;;;4782349;29;20054;-88
2021/06/04 03:49:13;;;;;;;45.47;34.28;;;17.20;99.90;;;;;;4777032;29;20043;-88
2021/06/04 03:51:42;;;;;;;39.92;31.98;;;17.20;99.90;;;;;;4787712;29;20049;-88
2021/06/04 03:54:13;;;;;;;45.00;33.83;;;17.10;99.90;;;;;;4768762;29;20070;-87
2021/06/04 03:56:40;;;;;;;44.10;32.75;;;17.10;99.90;;;;;;4778839;29;20039;-87
2021/06/04 03:59:08;;;;;;;40.50;31.50;;;17.10;99.90;;;;;;4786623;29;20043;-86
2021/06/04 04:01:40;;;;;;;44.22;32.75;;;17.10;99.90;;;;;;4786367;29;20062;-87
2021/06/04 04:04:07;;;;;;;44.10;34.22;;;17.10;99.90;;;;;;4784682;29;20035;-86
2021/06/04 04:06:34;;;;;;;46.85;36.95;;;17.10;99.90;;;;;;4771887;29;20054;-87
2021/06/04 04:09:03;;;;;;;47.70;35.97;;;17.10;99.90;;;;;;4760700;29;20533;-86
2021/06/04 04:11:29;;;;;;;41.72;34.65;;;17.10;99.90;;;;;;4802882;29;20051;-85
2021/06/04 04:13:56;;;;;;;45.35;35.97;;;17.10;99.90;;;;;;4787736;29;20451;-86
2021/06/04 04:16:22;;;;;;;42.40;34.33;;;17.10;99.90;;;;;;4772064;29;20057;-86
2021/06/04 04:18:49;;;;;;;41.40;33.72;;;17.10;99.90;;;;;;4774724;29;20054;-86
2021/06/04 04:21:16;;;;;;;42.22;33.40;;;17.10;99.90;;;;;;4788598;29;20062;-86
2021/06/04 04:23:50;;;;;;;43.05;34.25;;;17.30;99.90;;;;;;4804076;29;20043;-87
2021/06/04 04:26:23;;;;;;;42.70;34.25;;;17.30;99.90;;;;;;4775261;29;20059;-87
2021/06/04 04:28:50;;;;;;;46.00;35.65;;;17.40;99.90;;;;;;4789354;29;20057;-87
2021/06/04 04:31:24;;;;;;;42.65;34.22;;;17.40;99.90;;;;;;4776349;29;20042;-83
2021/06/04 04:33:52;;;;;;;42.10;32.65;;;17.50;99.90;;;;;;4807552;29;20058;-82
2021/06/04 04:36:22;;;;;;;42.92;34.08;;;17.50;99.90;;;;;;4808601;29;20042;-83
2021/06/04 04:38:49;;;;;;;43.88;34.13;;;17.60;99.90;;;;;;4791234;29;20494;-83
2021/06/04 04:41:16;;;;;;;39.53;31.83;;;17.60;99.90;;;;;;4806241;29;20047;-82
2021/06/04 04:43:50;;;;;;;43.47;34.15;;;17.60;99.90;;;;;;4765194;29;20051;-82
2021/06/04 04:46:20;;;;;;;45.83;35.83;;;17.60;99.90;;;;;;4794810;29;20065;-83
2021/06/04 04:48:47;;;;;;;39.60;33.90;;;17.60;99.90;;;;;;4793023;29;20074;-82
2021/06/04 04:51:15;;;;;;;38.83;31.23;;;17.60;99.90;;;;;;4790128;29;20062;-82
2021/06/04 04:53:41;;;;;;;46.55;35.92;;;17.60;99.90;;;;;;4764708;29;20047;-82
2021/06/04 04:56:09;;;;;;;45.60;35.20;;;17.60;99.90;;;;;;4778516;29;20050;-82
2021/06/04 04:58:36;;;;;;;43.08;34.17;;;17.60;99.90;;;;;;4766354;29;20086;-83
2021/06/04 05:01:05;;;;;;;43.58;34.58;;;17.70;99.90;;;;;;4781523;29;20047;-83
2021/06/04 05:03:32;;;;;;;39.90;32.63;;;17.70;99.90;;;;;;4792913;29;20046;-83
2021/06/04 05:05:59;;;;;;;42.38;34.65;;;17.70;99.90;;;;;;4796829;29;20042;-83
2021/06/04 05:08:26;;;;;;;39.65;33.42;;;17.70;99.90;;;;;;4777944;29;20042;-83
2021/06/04 05:10:52;;;;;;;43.35;34.90;;;17.80;99.90;;;;;;4771803;29;20407;-82
2021/06/04 05:13:19;;;;;;;40.80;34.00;;;17.90;99.90;;;;;;4789180;29;20062;-82
2021/06/04 05:15:46;;;;;;;40.35;34.38;;;18.10;99.90;;;;;;4775293;29;20424;-83
2021/06/04 05:18:14;;;;;;;39.78;32.25;;;18.20;99.90;;;;;;4777993;29;20043;-82
2021/06/04 05:20:42;;;;;;;44.83;34.95;;;18.30;99.90;;;;;;4787872;29;20463;-81
2021/06/04 05:23:09;;;;;;;41.42;34.22;;;18.40;99.90;;;;;;4772174;29;20039;-83
2021/06/04 05:25:39;;;;;;;35.55;30.52;;;18.50;99.90;;;;;;4798653;29;20039;-84
2021/06/04 05:28:07;;;;;;;36.35;30.17;;;18.70;99.90;;;;;;4774238;29;20047;-79
2021/06/04 05:30:37;;;;;;;36.38;30.27;;;18.90;99.90;;;;;;4766211;29;20059;-82
2021/06/04 05:33:11;;;;;;;38.42;31.73;;;19.00;99.90;;;;;;4793961;29;20054;-82
2021/06/04 05:35:38;;;;;;;35.17;28.40;;;19.20;99.90;;;;;;4782019;29;20122;-83
2021/06/04 05:38:05;;;;;;;29.23;25.60;;;19.30;99.90;;;;;;4803316;29;20038;-82
2021/06/04 05:40:36;;;;;;;36.58;30.60;;;19.30;99.90;;;;;;4784542;29;20589;-82
2021/06/04 05:43:04;;;;;;;33.17;29.02;;;19.20;99.90;;;;;;4799963;29;20031;-82
2021/06/04 05:45:35;;;;;;;32.63;26.42;;;19.30;99.90;;;;;;4801708;29;20380;-86
2021/06/04 05:48:01;;;;;;;36.42;28.50;;;19.30;99.90;;;;;;4772614;29;20042;-86
2021/06/04 05:50:35;;;;;;;27.48;24.42;;;19.30;99.90;;;;;;4759172;29;20047;-87
2021/06/04 05:53:04;;;;;;;31.67;26.40;;;19.40;99.90;;;;;;4785098;29;20043;-89
2021/06/04 05:55:31;;;;;;;31.73;25.58;;;19.40;99.90;;;;;;4756995;29;20050;-87
2021/06/04 05:57:57;;;;;;;30.23;26.05;;;19.60;99.90;;;;;;4784103;29;20047;-85
2021/06/04 06:00:32;;;;;;;31.02;26.65;;;19.70;99.90;;;;;;4803338;29;20804;-86
2021/06/04 06:02:59;;;;;;;29.05;24.55;;;20.00;99.90;;;;;;4800435;29;20034;-87
2021/06/04 06:05:26;;;;;;;30.60;25.75;;;20.30;99.90;;;;;;4786064;29;20049;-87
2021/06/04 06:07:52;;;;;;;29.10;23.70;;;20.50;99.90;;;;;;4787257;29;20059;-86
2021/06/04 06:10:21;;;;;;;31.30;26.05;;;20.60;99.90;;;;;;4773731;29;20050;-86
2021/06/04 06:12:53;;;;;;;32.05;26.10;;;20.70;99.90;;;;;;4774731;29;20053;-86
2021/06/04 06:15:22;;;;;;;30.75;27.10;;;20.80;99.80;;;;;;4807993;29;20069;-86
2021/06/04 06:17:49;;;;;;;29.58;24.02;;;20.80;99.50;;;;;;4788341;29;20408;-82
2021/06/04 06:20:17;;;;;;;28.77;24.77;;;21.00;99.50;;;;;;4791503;29;20043;-87
2021/06/04 06:22:44;;;;;;;30.08;24.45;;;21.20;99.40;;;;;;4789860;29;20066;-87
2021/06/04 06:25:16;;;;;;;28.48;24.35;;;21.50;99.00;;;;;;4807403;29;20039;-86
2021/06/04 06:27:44;;;;;;;28.92;24.42;;;21.50;98.30;;;;;;4790854;29;20050;-87
2021/06/04 06:30:16;;;;;;;27.05;23.27;;;21.60;97.80;;;;;;4777328;29;20597;-86
2021/06/04 06:32:43;;;;;;;23.83;21.25;;;21.50;97.50;;;;;;4788199;29;20050;-87
2021/06/04 06:35:18;;;;;;;27.33;23.13;;;21.50;97.50;;;;;;4792784;29;20494;-87
2021/06/04 06:37:44;;;;;;;28.48;23.55;;;21.50;97.30;;;;;;4791253;29;20516;-86
2021/06/04 06:40:11;;;;;;;25.60;21.23;;;21.70;97.20;;;;;;4773145;29;20050;-86
2021/06/04 06:42:38;;;;;;;23.77;21.17;;;21.90;97.10;;;;;;4807114;29;20047;-85
2021/06/04 06:45:08;;;;;;;24.05;21.52;;;22.10;96.90;;;;;;4802361;29;20049;-81
2021/06/04 06:47:35;;;;;;;23.90;21.35;;;22.40;96.50;;;;;;4801411;29;20051;-82
2021/06/04 06:50:05;;;;;;;24.92;22.05;;;22.50;96.20;;;;;;4771467;29;20057;-83
2021/06/04 06:52:33;;;;;;;23.60;19.60;;;22.60;95.80;;;;;;4792334;29;20046;-83
2021/06/04 06:55:00;;;;;;;24.88;20.02;;;22.80;95.70;;;;;;4812185;29;20061;-83
2021/06/04 06:57:27;;;;;;;23.60;21.02;;;22.90;95.30;;;;;;4750879;29;20039;-83
2021/06/04 06:59:54;;;;;;;23.52;21.15;;;22.90;94.40;;;;;;4799598;29;20058;-83
2021/06/04 07:02:21;;;;;;;21.27;18.70;;;23.00;94.10;;;;;;4773478;29;20498;-84
2021/06/04 07:04:49;;;;;;;20.05;15.88;;;23.00;93.40;;;;;;4786215;29;20055;-84
2021/06/04 07:07:18;;;;;;;21.13;18.65;;;23.00;93.50;;;;;;4770850;29;21056;-85
2021/06/04 07:09:46;;;;;;;22.20;19.88;;;23.20;93.60;;;;;;4802031;29;20407;-84
2021/06/04 07:12:13;;;;;;;18.35;16.10;;;23.20;92.80;;;;;;4800260;29;20054;-84
2021/06/04 07:14:40;;;;;;;23.70;17.83;;;23.30;92.90;;;;;;4755747;29;20589;-84
2021/06/04 07:17:07;;;;;;;17.60;15.60;;;23.40;92.50;;;;;;4798254;29;20047;-85
2021/06/04 07:19:35;;;;;;;15.05;13.43;;;23.50;92.30;;;;;;4798777;29;20055;-85
2021/06/04 07:22:04;;;;;;;11.75;10.60;;;23.60;92.30;;;;;;4768799;29;20058;-85
2021/06/04 07:24:32;;;;;;;13.77;12.27;;;23.70;92.10;;;;;;4786858;29;20047;-85
2021/06/04 07:27:00;;;;;;;16.08;14.38;;;23.90;91.60;;;;;;4788676;29;20046;-85
2021/06/04 07:29:29;;;;;;;14.60;13.02;;;24.00;91.10;;;;;;4787419;29;20066;-85
2021/06/04 07:31:57;;;;;;;16.77;13.90;;;24.10;91.00;;;;;;4803033;29;20070;-85
2021/06/04 07:34:25;;;;;;;17.02;15.30;;;24.20;90.60;;;;;;4803301;29;20053;-85
2021/06/04 07:36:55;;;;;;;13.90;12.50;;;24.30;90.10;;;;;;4782939;29;20038;-85
2021/06/04 07:39:26;;;;;;;15.82;14.23;;;24.40;90.20;;;;;;4775454;29;20039;-82
2021/06/04 07:41:53;;;;;;;13.88;12.43;;;24.50;89.60;;;;;;4809080;29;20046;-80
2021/06/04 07:44:21;;;;;;;15.02;13.45;;;24.60;89.70;;;;;;4779390;29;20047;-80
2021/06/04 07:46:49;;;;;;;13.63;11.77;;;24.60;88.80;;;;;;4802525;29;20047;-81
2021/06/04 07:49:15;;;;;;;15.90;12.63;;;24.60;88.70;;;;;;4793944;29;20047;-82
2021/06/04 07:51:45;;;;;;;12.95;11.25;;;24.60;88.40;;;;;;4805314;29;20498;-80
2021/06/04 07:54:14;;;;;;;12.98;10.75;;;24.50;88.60;;;;;;4806081;29;20053;-80
2021/06/04 07:56:42;;;;;;;14.57;11.98;;;24.30;88.90;;;;;;4804661;29;20047;-81
2021/06/04 07:59:09;;;;;;;14.07;12.57;;;24.20;88.50;;;;;;4792166;29;20038;-80
2021/06/04 08:01:36;;;;;;;14.13;11.70;;;24.00;88.00;;;;;;4803253;29;20043;-80
2021/06/04 08:04:03;;;;;;;15.25;11.18;;;24.00;88.90;;;;;;4807271;29;20053;-81
2021/06/04 08:06:29;;;;;;;11.63;10.43;;;23.90;89.00;;;;;;4787151;29;20084;-81
2021/06/04 08:08:56;;;;;;;10.75;9.60;;;23.90;89.80;;;;;;4806944;29;20070;-82
2021/06/04 08:11:27;;;;;;;12.23;11.02;;;23.90;90.00;;;;;;4809047;29;20058;-81
2021/06/04 08:13:59;;;;;;;13.55;11.70;;;23.90;89.40;;;;;;4808309;29;20042;-82
2021/06/04 08:16:28;;;;;;;11.48;9.88;;;23.90;89.00;;;;;;4807910;29;20050;-83
2021/06/04 08:18:54;;;;;;;11.45;10.30;;;23.90;89.50;;;;;;4791883;29;20038;-82
2021/06/04 08:21:27;;;;;;;15.40;11.60;;;23.90;89.70;;;;;;4810760;29;20486;-82
2021/06/04 08:23:53;;;;;;;10.45;9.20;;;24.00;89.20;;;;;;4812895;29;20069;-83
2021/06/04 08:26:24;;;;;;;11.88;10.57;;;24.20;89.00;;;;;;4790171;29;20509;-81
2021/06/04 08:28:51;;;;;;;10.98;9.27;;;24.30;88.80;;;;;;4809940;29;20142;-84
2021/06/04 08:31:20;;;;;;;10.40;8.60;;;24.50;88.60;;;;;;4807613;29;20536;-87
2021/06/04 08:33:47;;;;;;;11.60;10.48;;;24.70;88.60;;;;;;4792126;29;20039;-86
2021/06/04 08:36:21;;;;;;;11.18;10.07;;;25.00;87.50;;;;;;4789178;29;20051;-87
2021/06/04 08:38:49;;;;;;;11.18;10.05;;;25.20;86.30;;;;;;4777573;29;20053;-88
2021/06/04 08:41:43;;;;;;;13.88;10.88;;;25.30;85.60;;;;;;4809065;29;20418;-88
2021/06/04 08:44:31;;;;;;;10.65;8.52;;;25.30;84.50;;;;;;4803431;29;20042;-88
2021/06/04 08:47:03;;;;;;;10.82;9.23;;;25.40;84.80;;;;;;4805716;29;20043;-87
2021/06/04 08:49:44;;;;;;;;;;;25.40;84.90;;;;;;4799841;29;20057;-88
2021/06/04 08:52:30;;;;;;;10.77;8.85;;;25.40;84.40;;;;;;4785234;29;19924;-88
2021/06/04 08:55:04;;;;;;;12.27;9.52;;;25.40;84.90;;;;;;4785471;29;20069;-88
2021/06/04 08:58:01;;;;;;;10.82;9.80;;;25.60;83.70;;;;;;4799138;29;20035;-88
2021/06/04 09:00:35;;;;;;;7.93;7.13;;;25.60;83.70;;;;;;4785193;29;20418;-88
2021/06/04 09:03:14;;;;;;;9.07;8.02;;;25.70;83.70;;;;;;4801024;29;20043;-88
2021/06/04 09:05:58;;;;;;;8.15;7.35;;;25.60;83.10;;;;;;4799994;29;20406;-88
2021/06/04 09:08:29;;;;;;;10.43;8.25;;;25.60;83.10;;;;;;4786005;29;20046;-88
2021/06/04 09:11:35;;;;;;;8.27;7.28;;;25.70;82.50;;;;;;4788406;29;20486;-87
2021/06/04 09:14:02;;;;;;;8.25;7.32;;;25.90;82.20;;;;;;4766185;29;20618;-88
2021/06/04 09:16:54;;;;;;;11.80;8.98;;;26.30;81.40;;;;;;4771177;29;20070;-89
2021/06/04 09:19:47;;;;;;;9.00;7.72;;;26.60;79.90;;;;;;4803047;29;20038;-88
2021/06/04 09:22:14;;;;;;;7.90;7.10;;;26.90;79.70;;;;;;4802684;29;20054;-88
2021/06/04 09:24:44;;;;;;;8.43;6.93;;;27.30;77.90;;;;;;4769687;29;20051;-88
2021/06/04 09:27:34;;;;;;;6.80;6.10;;;27.50;78.50;;;;;;4804220;29;20055;-88
2021/06/04 09:30:12;;;;;;;6.90;6.30;;;27.70;78.10;;;;;;4786938;29;20056;-88
2021/06/04 09:32:41;;;;;;;9.35;8.35;;;27.90;76.40;;;;;;4779822;29;20049;-89
2021/06/04 09:35:17;;;;;;;6.05;5.45;;;27.90;74.80;;;;;;4791396;29;20046;-90
2021/06/04 09:37:44;;;;;;;6.70;5.72;;;27.80;74.70;;;;;;4801955;29;20038;-88
2021/06/04 09:40:27;;;;;;;6.55;4.70;;;27.80;74.60;;;;;;4759351;29;20054;-88
2021/06/04 09:42:57;;;;;;;5.50;5.00;;;27.90;74.70;;;;;;4805624;29;20058;-88
2021/06/04 09:45:33;;;;;;;5.85;4.75;;;27.90;73.60;;;;;;4787705;29;20047;-89
2021/06/04 09:48:01;;;;;;;6.13;4.78;;;27.70;74.10;;;;;;4790996;29;20165;-88
2021/06/04 09:50:34;;;;;;;7.18;5.78;;;27.70;74.50;;;;;;4775694;29;20054;-88
2021/06/04 09:53:09;;;;;;;8.23;4.78;;;27.60;74.10;;;;;;4775896;29;20047;-88
2021/06/04 09:55:51;;;;;;;5.60;4.97;;;27.50;74.50;;;;;;4778619;29;20054;-88
2021/06/04 09:58:24;;;;;;;4.90;4.43;;;27.60;75.10;;;;;;4792308;29;20043;-89
2021/06/04 10:01:07;;;;;;;6.03;5.35;;;27.80;75.00;;;;;;4798731;29;20035;-89
2021/06/04 10:03:40;;;;;;;5.82;5.20;;;28.20;73.90;;;;;;4794799;29;20054;-89
2021/06/04 10:06:07;;;;;;;6.93;5.43;;;28.70;73.20;;;;;;4789651;29;20525;-91
2021/06/04 10:08:54;;;;;;;6.15;4.68;;;28.90;72.10;;;;;;4779815;29;20038;-90
2021/06/04 10:11:32;;;;;;;6.22;5.55;;;29.10;72.00;;;;;;4780559;29;20035;-91
2021/06/04 10:14:06;;;;;;;6.35;5.75;;;29.20;70.60;;;;;;4808782;29;20054;-91
2021/06/04 10:19:42;;;;;;;6.53;5.13;;;28.60;71.70;;;;;;4749297;30;20048;-91
2021/06/04 10:22:32;;;;;;;7.53;5.05;;;28.50;72.10;;;;;;4774422;29;20053;-92
2021/06/04 10:25:09;;;;;;;4.80;4.40;;;28.50;71.50;;;;;;4781551;29;20054;-91
2021/06/04 10:27:46;;;;;;;5.70;4.88;;;28.60;71.20;;;;;;4786948;29;20046;-90
2021/06/04 10:30:13;;;;;;;7.32;4.93;;;28.70;71.30;;;;;;4819914;29;20062;-91
2021/06/04 10:32:59;;;;;;;6.30;4.57;;;29.00;71.70;;;;;;4803467;29;20483;-90
2021/06/04 10:35:36;;;;;;;5.57;5.03;;;29.30;70.60;;;;;;4798526;29;20461;-92
2021/06/04 10:38:14;;;;;;;5.82;4.55;;;29.50;69.70;;;;;;4806972;29;20038;-92
2021/06/04 10:40:51;;;;;;;5.60;5.10;;;29.40;69.10;;;;;;4770499;29;20049;-92
2021/06/04 10:43:39;;;;;;;6.88;4.90;;;29.30;68.70;;;;;;4786658;29;20052;-93
2021/06/04 10:46:28;;;;;;;5.03;4.22;;;29.50;69.20;;;;;;4789006;29;20057;-90
2021/06/04 10:48:59;;;;;;;4.85;4.43;;;29.80;69.80;;;;;;4786395;29;20050;-92
2021/06/04 10:52:01;;;;;;;7.30;5.82;;;30.10;68.40;;;;;;4789412;29;20038;-94
2021/06/04 10:54:46;;;;;;;10.85;9.18;;;30.30;68.10;;;;;;4773042;29;20042;-91
2021/06/04 10:57:40;;;;;;;14.32;10.63;;;30.30;68.30;;;;;;4785569;29;20039;-90
2021/06/04 11:00:14;;;;;;;10.55;9.48;;;30.20;67.50;;;;;;4787220;29;20419;-92
2021/06/04 11:03:08;;;;;;;9.63;8.70;;;30.00;68.20;;;;;;4784729;29;20134;-93
2021/06/04 11:05:47;;;;;;;9.98;9.05;;;29.90;68.80;;;;;;4777021;29;20057;-94
2021/06/04 11:08:46;;;;;;;10.98;9.88;;;29.90;68.50;;;;;;4789363;29;20063;-93
2021/06/04 11:11:34;;;;;;;9.23;8.27;;;29.80;68.20;;;;;;4790931;29;20407;-91
2021/06/04 11:14:17;;;;;;;8.50;7.70;;;30.10;68.60;;;;;;4776876;29;20046;-92
2021/06/04 11:17:03;;;;;;;10.48;9.32;;;30.60;68.10;;;;;;4769033;29;20043;-92
2021/06/04 11:19:40;;;;;;;7.90;7.18;;;31.20;64.70;;;;;;4774983;29;20049;-92
2021/06/04 11:22:23;;;;;;;7.15;6.45;;;31.50;64.00;;;;;;4776748;29;20387;-93
2021/06/04 11:25:00;;;;;;;7.28;6.40;;;31.90;63.40;;;;;;4789931;29;20038;-93
2021/06/04 11:27:42;;;;;;;7.53;6.28;;;32.20;63.10;;;;;;4779255;29;20553;-93
2021/06/04 11:30:17;;;;;;;6.10;5.05;;;32.70;61.60;;;;;;4772614;29;20055;-92
2021/06/04 11:33:05;;;;;;;6.22;4.95;;;32.90;60.80;;;;;;4775432;29;20057;-92
2021/06/04 11:35:38;;;;;;;6.75;6.15;;;33.20;60.20;;;;;;4771618;29;20046;-89
2021/06/04 11:38:28;;;;;;;9.13;7.03;;;33.40;58.80;;;;;;4787539;29;20046;-85
2021/06/04 11:41:06;;;;;;;11.32;10.23;;;33.20;57.40;;;;;;4804163;29;20429;-84
2021/06/04 11:43:35;;;;;;;8.95;8.02;;;32.70;57.70;;;;;;4789611;29;20054;-84
2021/06/04 11:46:13;;;;;;;7.15;6.45;;;32.20;58.30;;;;;;4801408;29;20065;-83
2021/06/04 11:48:54;;;;;;;7.30;5.97;;;31.70;59.10;;;;;;4805335;29;20138;-83
2021/06/04 11:51:21;;;;;;;6.47;5.80;;;31.30;59.80;;;;;;4803217;29;20035;-84
2021/06/04 11:54:16;;;;;;;7.18;5.97;;;30.90;60.10;;;;;;4787996;29;20067;-82
2021/06/04 11:57:00;;;;;;;7.32;5.88;;;30.70;62.00;;;;;;4790819;29;20402;-87
2021/06/04 11:59:49;;;;;;;6.57;5.38;;;30.70;62.20;;;;;;4766486;29;20051;-89
2021/06/04 12:02:41;;;;;;;8.93;7.05;;;31.00;62.60;;;;;;4776608;29;20046;-91
2021/06/04 12:05:16;;;;;;;6.78;5.95;;;31.30;61.90;;;;;;4792840;29;20069;-92
2021/06/04 12:08:14;;;;;;;6.70;6.10;;;32.10;61.40;;;;;;4795651;29;20038;-92
2021/06/04 12:10:50;;;;;;;5.57;5.07;;;32.60;58.50;;;;;;4794878;29;20035;-94
2021/06/04 12:13:44;;;;;;;6.65;4.53;;;32.70;58.30;;;;;;4806816;29;20051;-92
2021/06/04 12:16:29;;;;;;;5.90;4.28;;;32.90;57.70;;;;;;4778397;29;20050;-89
2021/06/04 12:19:17;;;;;;;5.32;4.82;;;32.70;56.60;;;;;;4793369;29;20069;-90
2021/06/04 12:21:52;;;;;;;6.30;5.03;;;32.40;56.50;;;;;;4807040;29;20085;-92
2021/06/04 12:24:22;;;;;;;15.50;5.18;;;32.20;56.80;;;;;;4774433;29;20042;-94
2021/06/04 12:26:54;;;;;;;4.75;3.95;;;32.70;56.10;;;;;;4804616;29;20047;-94
2021/06/04 12:29:27;;;;;;;5.45;4.57;;;33.50;54.90;;;;;;4786213;29;20522;-92
2021/06/04 12:32:05;;;;;;;4.88;4.32;;;33.80;53.90;;;;;;4788701;29;20478;-94
2021/06/04 12:34:35;;;;;;;6.05;5.40;;;33.80;52.70;;;;;;4794929;29;20506;-94
2021/06/04 12:37:09;;;;;;;7.07;5.47;;;33.40;52.50;;;;;;4775977;29;20403;-94
2021/06/04 12:40:08;;;;;;;5.45;4.47;;;32.70;52.90;;;;;;4792444;29;20034;-93
2021/06/04 12:46:47;;;;;;;7.05;4.82;;;31.40;56.00;;;;;;4780493;29;20144;-93
2021/06/04 12:49:14;;;;;;;8.45;5.25;;;31.10;57.60;;;;;;4785213;29;20510;-93
2021/06/04 12:51:46;;;;;;;6.70;6.03;;;31.30;58.20;;;;;;4787078;29;20466;-94
2021/06/04 12:54:25;;;;;;;5.72;5.03;;;31.50;57.60;;;;;;4796577;29;20046;-95
2021/06/04 12:56:58;;;;;;;4.47;4.10;;;31.60;57.40;;;;;;4781309;29;20039;-95
2021/06/04 12:59:33;;;;;;;7.88;5.10;;;31.50;57.80;;;;;;4801196;29;20372;-95
2021/06/04 13:02:12;;;;;;;5.55;4.38;;;31.50;57.40;;;;;;4771186;29;20054;-95
2021/06/04 13:04:53;;;;;;;8.25;5.65;;;32.00;57.70;;;;;;4808983;29;20030;-95
2021/06/04 13:07:23;;;;;;;5.45;4.93;;;33.00;55.60;;;;;;4779715;29;20042;-94
2021/06/04 13:10:05;;;;;;;6.55;4.68;;;33.50;53.60;;;;;;4782792;29;20565;-94
2021/06/04 13:12:34;;;;;;;6.90;5.35;;;33.30;53.20;;;;;;4783377;29;20391;-93
2021/06/04 13:15:28;;;;;;;6.00;4.93;;;32.90;53.00;;;;;;4767775;29;20053;-93
2021/06/04 13:18:01;;;;;;;5.80;4.68;;;32.50;53.50;;;;;;4781633;29;20054;-93
2021/06/04 13:20:34;;;;;;;5.45;4.78;;;32.30;54.40;;;;;;4796886;29;20049;-95
2021/06/04 13:23:26;;;;;;;5.15;4.65;;;32.30;53.90;;;;;;4781037;29;20061;-95
2021/06/04 13:26:05;;;;;;;5.40;4.90;;;32.10;54.20;;;;;;4777571;29;20058;-93
2021/06/04 13:28:46;;;;;;;7.25;5.68;;;31.90;54.80;;;;;;4784539;29;20039;-94
2021/06/04 13:31:25;;;;;;;5.35;4.60;;;31.60;54.90;;;;;;4786263;29;20046;-92
2021/06/04 13:33:59;;;;;;;9.98;5.43;;;31.60;56.30;;;;;;4805586;29;20045;-93
2021/06/04 13:36:30;;;;;;;7.55;4.70;;;32.00;54.80;;;;;;4804546;29;20491;-93
2021/06/04 13:39:11;;;;;;;6.75;5.15;;;32.30;53.50;;;;;;4782071;29;20047;-93
2021/06/04 13:41:56;;;;;;;8.38;5.50;;;32.00;52.70;;;;;;4783245;29;20510;-91
2021/06/04 13:44:35;;;;;;;;;;;;;;;;;;;;;